sensor_id;sensor_type;location;lat;lon;timestamp;temperature;humidity
8945;DHT22;4507;40.232;29.132;2023-01-08T00:01:21;3.40;99.90
8945;DHT22;4507;40.232;29.132;2023-01-08T00:03:50;3.30;99.90
8945;DHT22;4507;40.232;29.132;2023-01-08T00:06:20;3.30;99.90
8945;DHT22;4507;40.232;29.132;2023-01-08T00:08:49;3.30;99.90
8945;DHT22;4507;40.232;29.132;2023-01-08T00:11:18;3.20;99.90
8945;DHT22;4507;40.232;29.132;2023-01-08T00:13:47;3.20;99.90
8945;DHT22;4507;40.232;29.132;2023-01-08T00:16:18;3.20;99.90
8945;DHT22;4507;40.232;29.132;2023-01-08T00:18:48;3.20;99.90
8945;DHT22;4507;40.232;29.132;2023-01-08T00:21:17;3.20;99.90
8945;DHT22;4507;40.232;29.132;2023-01-08T00:23:47;3.20;99.90
8945;DHT22;4507;40.232;29.132;2023-01-08T00:26:16;3.20;99.90
8945;DHT22;4507;40.232;29.132;2023-01-08T00:28:46;3.10;99.90
8945;DHT22;4507;40.232;29.132;2023-01-08T00:31:15;3.10;99.90
8945;DHT22;4507;40.232;29.132;2023-01-08T00:33:46;3.20;99.90
8945;DHT22;4507;40.232;29.132;2023-01-08T00:36:16;3.10;99.90
8945;DHT22;4507;40.232;29.132;2023-01-08T00:38:46;3.10;99.90
8945;DHT22;4507;40.232;29.132;2023-01-08T00:41:15;3.10;99.90
8945;DHT22;4507;40.232;29.132;2023-01-08T00:43:44;3.10;99.90
8945;DHT22;4507;40.232;29.132;2023-01-08T00:46:13;3.10;99.90
8945;DHT22;4507;40.232;29.132;2023-01-08T00:48:43;3.10;99.90
8945;DHT22;4507;40.232;29.132;2023-01-08T00:51:13;3.10;99.90
8945;DHT22;4507;40.232;29.132;2023-01-08T00:53:42;3.00;99.90
8945;DHT22;4507;40.232;29.132;2023-01-08T00:56:11;3.00;99.90
8945;DHT22;4507;40.232;29.132;2023-01-08T00:58:40;3.00;99.90
8945;DHT22;4507;40.232;29.132;2023-01-08T01:01:10;3.00;99.90
8945;DHT22;4507;40.232;29.132;2023-01-08T01:03:40;2.90;99.90
8945;DHT22;4507;40.232;29.132;2023-01-08T01:06:11;2.90;99.90
8945;DHT22;4507;40.232;29.132;2023-01-08T01:08:42;2.90;99.90
8945;DHT22;4507;40.232;29.132;2023-01-08T01:11:22;2.90;99.90
8945;DHT22;4507;40.232;29.132;2023-01-08T01:13:52;2.90;99.90
8945;DHT22;4507;40.232;29.132;2023-01-08T01:16:22;2.80;99.90
8945;DHT22;4507;40.232;29.132;2023-01-08T01:18:51;2.80;99.90
8945;DHT22;4507;40.232;29.132;2023-01-08T01:21:24;2.80;99.90
8945;DHT22;4507;40.232;29.132;2023-01-08T01:23:57;2.80;99.90
8945;DHT22;4507;40.232;29.132;2023-01-08T01:26:27;2.80;99.90
8945;DHT22;4507;40.232;29.132;2023-01-08T01:28:57;2.80;99.90
8945;DHT22;4507;40.232;29.132;2023-01-08T01:31:28;2.80;99.90
8945;DHT22;4507;40.232;29.132;2023-01-08T01:33:57;2.80;99.90
8945;DHT22;4507;40.232;29.132;2023-01-08T01:36:27;2.80;99.90
8945;DHT22;4507;40.232;29.132;2023-01-08T01:38:57;2.80;99.90
8945;DHT22;4507;40.232;29.132;2023-01-08T01:41:29;2.80;99.90
8945;DHT22;4507;40.232;29.132;2023-01-08T01:43:59;2.80;99.90
8945;DHT22;4507;40.232;29.132;2023-01-08T01:46:35;2.80;99.90
8945;DHT22;4507;40.232;29.132;2023-01-08T01:49:09;2.80;99.90
8945;DHT22;4507;40.232;29.132;2023-01-08T01:51:46;2.70;99.90
8945;DHT22;4507;40.232;29.132;2023-01-08T01:54:19;2.70;99.90
8945;DHT22;4507;40.232;29.132;2023-01-08T01:56:49;2.80;99.90
8945;DHT22;4507;40.232;29.132;2023-01-08T01:59:18;2.80;99.90
8945;DHT22;4507;40.232;29.132;2023-01-08T02:01:47;2.80;99.90
8945;DHT22;4507;40.232;29.132;2023-01-08T02:04:17;2.80;99.90
8945;DHT22;4507;40.232;29.132;2023-01-08T02:06:51;2.80;99.90
8945;DHT22;4507;40.232;29.132;2023-01-08T02:09:30;2.80;99.90
8945;DHT22;4507;40.232;29.132;2023-01-08T02:12:05;2.80;99.90
8945;DHT22;4507;40.232;29.132;2023-01-08T02:15:01;2.80;99.90
8945;DHT22;4507;40.232;29.132;2023-01-08T02:17:37;2.70;99.90
8945;DHT22;4507;40.232;29.132;2023-01-08T02:20:11;2.70;99.90
8945;DHT22;4507;40.232;29.132;2023-01-08T02:22:50;2.70;99.90
8945;DHT22;4507;40.232;29.132;2023-01-08T02:25:29;2.70;99.90
8945;DHT22;4507;40.232;29.132;2023-01-08T02:28:08;2.70;99.90
8945;DHT22;4507;40.232;29.132;2023-01-08T02:30:38;2.60;99.90
8945;DHT22;4507;40.232;29.132;2023-01-08T02:33:07;2.60;99.90
8945;DHT22;4507;40.232;29.132;2023-01-08T02:35:40;2.60;99.90
8945;DHT22;4507;40.232;29.132;2023-01-08T02:38:12;2.60;99.90
8945;DHT22;4507;40.232;29.132;2023-01-08T02:40:51;2.60;99.90
8945;DHT22;4507;40.232;29.132;2023-01-08T02:43:25;2.60;99.90
8945;DHT22;4507;40.232;29.132;2023-01-08T02:45:58;2.60;99.90
8945;DHT22;4507;40.232;29.132;2023-01-08T02:48:34;2.60;99.90
8945;DHT22;4507;40.232;29.132;2023-01-08T02:51:07;2.60;99.90
8945;DHT22;4507;40.232;29.132;2023-01-08T02:53:40;2.60;99.90
8945;DHT22;4507;40.232;29.132;2023-01-08T02:56:12;2.60;99.90
8945;DHT22;4507;40.232;29.132;2023-01-08T02:58:44;2.60;99.90
8945;DHT22;4507;40.232;29.132;2023-01-08T03:01:16;2.50;99.90
8945;DHT22;4507;40.232;29.132;2023-01-08T03:03:49;2.50;99.90
8945;DHT22;4507;40.232;29.132;2023-01-08T03:06:20;2.50;99.90
8945;DHT22;4507;40.232;29.132;2023-01-08T03:08:52;2.50;99.90
8945;DHT22;4507;40.232;29.132;2023-01-08T03:11:22;2.50;99.90
8945;DHT22;4507;40.232;29.132;2023-01-08T03:13:59;2.50;99.90
8945;DHT22;4507;40.232;29.132;2023-01-08T03:16:33;2.50;99.90
8945;DHT22;4507;40.232;29.132;2023-01-08T03:19:07;2.50;99.90
8945;DHT22;4507;40.232;29.132;2023-01-08T03:21:38;2.50;99.90
8945;DHT22;4507;40.232;29.132;2023-01-08T03:24:12;2.50;99.90
8945;DHT22;4507;40.232;29.132;2023-01-08T03:26:44;2.50;99.90
8945;DHT22;4507;40.232;29.132;2023-01-08T03:29:18;2.50;99.90
8945;DHT22;4507;40.232;29.132;2023-01-08T03:31:49;2.50;99.90
8945;DHT22;4507;40.232;29.132;2023-01-08T03:34:22;2.50;99.90
8945;DHT22;4507;40.232;29.132;2023-01-08T03:36:54;2.60;99.90
8945;DHT22;4507;40.232;29.132;2023-01-08T03:39:25;2.60;99.90
8945;DHT22;4507;40.232;29.132;2023-01-08T03:41:58;2.60;99.90
8945;DHT22;4507;40.232;29.132;2023-01-08T03:44:29;2.50;99.90
8945;DHT22;4507;40.232;29.132;2023-01-08T03:46:59;2.50;99.90
8945;DHT22;4507;40.232;29.132;2023-01-08T03:49:28;2.50;99.90
8945;DHT22;4507;40.232;29.132;2023-01-08T03:51:58;2.50;99.90
8945;DHT22;4507;40.232;29.132;2023-01-08T03:54:31;2.50;99.90
8945;DHT22;4507;40.232;29.132;2023-01-08T03:57:00;2.50;99.90
8945;DHT22;4507;40.232;29.132;2023-01-08T03:59:31;2.50;99.90
8945;DHT22;4507;40.232;29.132;2023-01-08T04:02:00;2.50;99.90
8945;DHT22;4507;40.232;29.132;2023-01-08T04:04:30;2.50;99.90
8945;DHT22;4507;40.232;29.132;2023-01-08T04:06:59;2.50;99.90
8945;DHT22;4507;40.232;29.132;2023-01-08T04:09:28;2.50;99.90
8945;DHT22;4507;40.232;29.132;2023-01-08T04:11:57;2.50;99.90
8945;DHT22;4507;40.232;29.132;2023-01-08T04:14:26;2.50;99.90
8945;DHT22;4507;40.232;29.132;2023-01-08T04:16:57;2.50;99.90
8945;DHT22;4507;40.232;29.132;2023-01-08T04:19:26;2.50;99.90
8945;DHT22;4507;40.232;29.132;2023-01-08T04:21:55;2.50;99.90
8945;DHT22;4507;40.232;29.132;2023-01-08T04:24:24;2.50;99.90
8945;DHT22;4507;40.232;29.132;2023-01-08T04:27:12;2.50;99.90
8945;DHT22;4507;40.232;29.132;2023-01-08T04:29:41;2.50;99.90
8945;DHT22;4507;40.232;29.132;2023-01-08T04:32:12;2.40;99.90
8945;DHT22;4507;40.232;29.132;2023-01-08T04:34:41;2.40;99.90
8945;DHT22;4507;40.232;29.132;2023-01-08T04:37:10;2.50;99.90
8945;DHT22;4507;40.232;29.132;2023-01-08T04:39:39;2.50;99.90
8945;DHT22;4507;40.232;29.132;2023-01-08T04:42:08;2.50;99.90
8945;DHT22;4507;40.232;29.132;2023-01-08T04:44:37;2.50;99.90
8945;DHT22;4507;40.232;29.132;2023-01-08T04:47:06;2.50;99.90
8945;DHT22;4507;40.232;29.132;2023-01-08T04:49:36;2.60;99.90
8945;DHT22;4507;40.232;29.132;2023-01-08T04:52:05;2.60;99.90
8945;DHT22;4507;40.232;29.132;2023-01-08T04:54:34;2.70;99.90
8945;DHT22;4507;40.232;29.132;2023-01-08T04:57:03;2.70;99.90
8945;DHT22;4507;40.232;29.132;2023-01-08T04:59:32;2.80;99.90
8945;DHT22;4507;40.232;29.132;2023-01-08T05:02:01;2.80;99.90
8945;DHT22;4507;40.232;29.132;2023-01-08T05:04:31;2.90;99.90
8945;DHT22;4507;40.232;29.132;2023-01-08T05:07:02;2.90;99.90
8945;DHT22;4507;40.232;29.132;2023-01-08T05:09:31;3.00;99.90
8945;DHT22;4507;40.232;29.132;2023-01-08T05:12:00;3.00;99.90
8945;DHT22;4507;40.232;29.132;2023-01-08T05:14:29;3.00;99.90
8945;DHT22;4507;40.232;29.132;2023-01-08T05:16:58;3.00;99.90
8945;DHT22;4507;40.232;29.132;2023-01-08T05:19:27;3.00;99.90
8945;DHT22;4507;40.232;29.132;2023-01-08T05:21:56;3.00;99.90
8945;DHT22;4507;40.232;29.132;2023-01-08T05:24:27;3.00;99.90
8945;DHT22;4507;40.232;29.132;2023-01-08T05:26:57;2.90;99.90
8945;DHT22;4507;40.232;29.132;2023-01-08T05:29:26;2.90;99.90
8945;DHT22;4507;40.232;29.132;2023-01-08T05:31:55;2.90;99.90
8945;DHT22;4507;40.232;29.132;2023-01-08T05:34:24;2.90;99.90
8945;DHT22;4507;40.232;29.132;2023-01-08T05:36:53;2.90;99.90
8945;DHT22;4507;40.232;29.132;2023-01-08T05:39:22;2.80;99.90
8945;DHT22;4507;40.232;29.132;2023-01-08T05:41:53;2.90;99.90
8945;DHT22;4507;40.232;29.132;2023-01-08T05:44:22;2.80;99.90
8945;DHT22;4507;40.232;29.132;2023-01-08T05:46:52;2.80;99.90
8945;DHT22;4507;40.232;29.132;2023-01-08T05:49:21;2.80;99.90
8945;DHT22;4507;40.232;29.132;2023-01-08T05:51:50;2.80;99.90
8945;DHT22;4507;40.232;29.132;2023-01-08T05:54:19;2.80;99.90
8945;DHT22;4507;40.232;29.132;2023-01-08T05:56:48;2.80;99.90
8945;DHT22;4507;40.232;29.132;2023-01-08T05:59:19;2.80;99.90
8945;DHT22;4507;40.232;29.132;2023-01-08T06:01:48;2.80;99.90
8945;DHT22;4507;40.232;29.132;2023-01-08T06:04:17;2.80;99.90
8945;DHT22;4507;40.232;29.132;2023-01-08T06:06:46;2.90;99.90
8945;DHT22;4507;40.232;29.132;2023-01-08T06:09:15;2.90;99.90
8945;DHT22;4507;40.232;29.132;2023-01-08T06:11:44;3.00;99.90
8945;DHT22;4507;40.232;29.132;2023-01-08T06:14:14;3.00;99.90
8945;DHT22;4507;40.232;29.132;2023-01-08T06:16:45;3.00;99.90
8945;DHT22;4507;40.232;29.132;2023-01-08T06:19:14;3.10;99.90
8945;DHT22;4507;40.232;29.132;2023-01-08T06:21:45;3.10;99.90
8945;DHT22;4507;40.232;29.132;2023-01-08T06:24:14;3.20;99.90
8945;DHT22;4507;40.232;29.132;2023-01-08T06:26:43;3.30;99.90
8945;DHT22;4507;40.232;29.132;2023-01-08T06:29:12;3.40;99.90
8945;DHT22;4507;40.232;29.132;2023-01-08T06:31:41;3.50;99.90
8945;DHT22;4507;40.232;29.132;2023-01-08T06:34:12;3.70;99.90
8945;DHT22;4507;40.232;29.132;2023-01-08T06:36:41;4.00;99.90
8945;DHT22;4507;40.232;29.132;2023-01-08T06:39:10;4.20;99.90
8945;DHT22;4507;40.232;29.132;2023-01-08T06:41:42;4.50;99.90
8945;DHT22;4507;40.232;29.132;2023-01-08T06:44:11;4.70;99.90
8945;DHT22;4507;40.232;29.132;2023-01-08T06:46:40;4.90;99.90
8945;DHT22;4507;40.232;29.132;2023-01-08T06:49:09;5.10;99.90
8945;DHT22;4507;40.232;29.132;2023-01-08T06:51:41;5.40;99.90
8945;DHT22;4507;40.232;29.132;2023-01-08T06:54:10;5.60;99.90
8945;DHT22;4507;40.232;29.132;2023-01-08T06:56:40;5.70;99.90
8945;DHT22;4507;40.232;29.132;2023-01-08T06:59:19;6.00;99.90
8945;DHT22;4507;40.232;29.132;2023-01-08T07:01:49;6.20;99.90
8945;DHT22;4507;40.232;29.132;2023-01-08T07:04:18;6.40;99.90
8945;DHT22;4507;40.232;29.132;2023-01-08T07:06:48;6.60;99.90
8945;DHT22;4507;40.232;29.132;2023-01-08T07:09:17;6.80;99.90
8945;DHT22;4507;40.232;29.132;2023-01-08T07:11:46;6.90;99.90
8945;DHT22;4507;40.232;29.132;2023-01-08T07:14:15;7.00;97.60
8945;DHT22;4507;40.232;29.132;2023-01-08T07:16:45;7.00;95.50
8945;DHT22;4507;40.232;29.132;2023-01-08T07:19:14;7.00;94.60
8945;DHT22;4507;40.232;29.132;2023-01-08T07:21:43;7.10;95.30
8945;DHT22;4507;40.232;29.132;2023-01-08T07:24:13;7.20;95.50
8945;DHT22;4507;40.232;29.132;2023-01-08T07:26:43;7.30;95.80
8945;DHT22;4507;40.232;29.132;2023-01-08T07:29:12;7.50;96.70
8945;DHT22;4507;40.232;29.132;2023-01-08T07:31:40;7.80;96.90
8945;DHT22;4507;40.232;29.132;2023-01-08T07:34:10;8.10;96.00
8945;DHT22;4507;40.232;29.132;2023-01-08T07:36:41;8.30;94.10
8945;DHT22;4507;40.232;29.132;2023-01-08T07:39:10;8.50;92.50
8945;DHT22;4507;40.232;29.132;2023-01-08T07:41:41;8.70;91.10
8945;DHT22;4507;40.232;29.132;2023-01-08T07:44:11;8.80;90.20
8945;DHT22;4507;40.232;29.132;2023-01-08T07:46:40;8.90;89.70
8945;DHT22;4507;40.232;29.132;2023-01-08T07:49:09;9.10;87.70
8945;DHT22;4507;40.232;29.132;2023-01-08T07:51:38;9.20;87.40
8945;DHT22;4507;40.232;29.132;2023-01-08T07:54:07;9.30;88.10
8945;DHT22;4507;40.232;29.132;2023-01-08T07:56:37;9.50;85.00
8945;DHT22;4507;40.232;29.132;2023-01-08T07:59:07;9.60;82.80
8945;DHT22;4507;40.232;29.132;2023-01-08T08:01:36;9.80;83.30
8945;DHT22;4507;40.232;29.132;2023-01-08T08:04:06;10.10;83.00
8945;DHT22;4507;40.232;29.132;2023-01-08T08:06:34;10.30;81.30
8945;DHT22;4507;40.232;29.132;2023-01-08T08:09:04;10.50;78.00
8945;DHT22;4507;40.232;29.132;2023-01-08T08:11:33;10.70;73.40
8945;DHT22;4507;40.232;29.132;2023-01-08T08:14:02;10.70;72.10
8945;DHT22;4507;40.232;29.132;2023-01-08T08:16:33;10.70;72.50
8945;DHT22;4507;40.232;29.132;2023-01-08T08:19:02;10.80;72.20
8945;DHT22;4507;40.232;29.132;2023-01-08T08:21:31;10.90;70.60
8945;DHT22;4507;40.232;29.132;2023-01-08T08:24:00;11.00;70.00
8945;DHT22;4507;40.232;29.132;2023-01-08T08:26:29;11.10;69.60
8945;DHT22;4507;40.232;29.132;2023-01-08T08:28:59;11.20;71.30
8945;DHT22;4507;40.232;29.132;2023-01-08T08:31:28;11.40;71.20
8945;DHT22;4507;40.232;29.132;2023-01-08T08:33:59;11.70;69.90
8945;DHT22;4507;40.232;29.132;2023-01-08T08:36:28;11.90;67.90
8945;DHT22;4507;40.232;29.132;2023-01-08T08:38:57;12.10;68.50
8945;DHT22;4507;40.232;29.132;2023-01-08T08:41:26;12.40;66.50
8945;DHT22;4507;40.232;29.132;2023-01-08T08:43:55;12.60;64.80
8945;DHT22;4507;40.232;29.132;2023-01-08T08:46:25;12.80;64.40
8945;DHT22;4507;40.232;29.132;2023-01-08T08:48:54;13.10;63.30
8945;DHT22;4507;40.232;29.132;2023-01-08T08:51:24;13.30;61.10
8945;DHT22;4507;40.232;29.132;2023-01-08T08:53:53;13.40;60.00
8945;DHT22;4507;40.232;29.132;2023-01-08T08:56:23;13.60;60.50
8945;DHT22;4507;40.232;29.132;2023-01-08T08:58:52;13.80;59.60
8945;DHT22;4507;40.232;29.132;2023-01-08T09:01:21;14.00;58.50
8945;DHT22;4507;40.232;29.132;2023-01-08T09:03:50;14.20;57.30
8945;DHT22;4507;40.232;29.132;2023-01-08T09:06:19;14.50;57.70
8945;DHT22;4507;40.232;29.132;2023-01-08T09:08:50;14.80;56.70
8945;DHT22;4507;40.232;29.132;2023-01-08T09:11:19;15.10;55.80
8945;DHT22;4507;40.232;29.132;2023-01-08T09:13:48;15.40;53.50
8945;DHT22;4507;40.232;29.132;2023-01-08T09:16:17;15.50;51.70
8945;DHT22;4507;40.232;29.132;2023-01-08T09:18:46;15.60;50.60
8945;DHT22;4507;40.232;29.132;2023-01-08T09:21:15;15.60;50.90
8945;DHT22;4507;40.232;29.132;2023-01-08T09:23:46;15.60;50.70
8945;DHT22;4507;40.232;29.132;2023-01-08T09:26:17;15.70;50.10
8945;DHT22;4507;40.232;29.132;2023-01-08T09:28:46;15.70;49.30
8945;DHT22;4507;40.232;29.132;2023-01-08T09:31:15;15.70;48.90
8945;DHT22;4507;40.232;29.132;2023-01-08T09:33:46;15.80;49.20
8945;DHT22;4507;40.232;29.132;2023-01-08T09:36:16;15.80;48.30
8945;DHT22;4507;40.232;29.132;2023-01-08T09:38:45;15.90;47.90
8945;DHT22;4507;40.232;29.132;2023-01-08T09:41:18;16.00;47.10
8945;DHT22;4507;40.232;29.132;2023-01-08T09:43:51;16.00;46.30
8945;DHT22;4507;40.232;29.132;2023-01-08T09:46:23;16.10;47.00
8945;DHT22;4507;40.232;29.132;2023-01-08T09:48:56;16.10;46.80
8945;DHT22;4507;40.232;29.132;2023-01-08T09:51:32;16.20;46.50
8945;DHT22;4507;40.232;29.132;2023-01-08T09:54:02;16.40;45.40
8945;DHT22;4507;40.232;29.132;2023-01-08T09:56:34;16.40;45.40
8945;DHT22;4507;40.232;29.132;2023-01-08T09:59:04;16.50;44.60
8945;DHT22;4507;40.232;29.132;2023-01-08T10:01:35;16.50;44.00
8945;DHT22;4507;40.232;29.132;2023-01-08T10:04:10;16.50;44.00
8945;DHT22;4507;40.232;29.132;2023-01-08T10:06:45;16.50;43.80
8945;DHT22;4507;40.232;29.132;2023-01-08T10:09:18;16.40;43.90
8945;DHT22;4507;40.232;29.132;2023-01-08T10:11:51;16.40;43.60
8945;DHT22;4507;40.232;29.132;2023-01-08T10:14:23;16.30;43.30
8945;DHT22;4507;40.232;29.132;2023-01-08T10:16:56;16.30;43.70
8945;DHT22;4507;40.232;29.132;2023-01-08T10:19:26;16.30;43.80
8945;DHT22;4507;40.232;29.132;2023-01-08T10:21:56;16.40;44.00
8945;DHT22;4507;40.232;29.132;2023-01-08T10:24:34;16.40;43.50
8945;DHT22;4507;40.232;29.132;2023-01-08T10:27:10;16.40;42.60
8945;DHT22;4507;40.232;29.132;2023-01-08T10:29:41;16.40;43.40
8945;DHT22;4507;40.232;29.132;2023-01-08T10:32:14;16.40;43.60
8945;DHT22;4507;40.232;29.132;2023-01-08T10:34:45;16.50;43.60
8945;DHT22;4507;40.232;29.132;2023-01-08T10:37:27;16.50;43.70
8945;DHT22;4507;40.232;29.132;2023-01-08T10:40:01;16.70;43.40
8945;DHT22;4507;40.232;29.132;2023-01-08T10:42:34;16.80;43.10
8945;DHT22;4507;40.232;29.132;2023-01-08T10:45:10;16.80;42.30
8945;DHT22;4507;40.232;29.132;2023-01-08T10:47:47;16.80;42.30
8945;DHT22;4507;40.232;29.132;2023-01-08T10:50:19;16.70;42.60
8945;DHT22;4507;40.232;29.132;2023-01-08T10:52:54;16.50;42.00
8945;DHT22;4507;40.232;29.132;2023-01-08T10:55:26;16.30;41.90
8945;DHT22;4507;40.232;29.132;2023-01-08T10:57:58;16.00;41.20
8945;DHT22;4507;40.232;29.132;2023-01-08T11:00:29;15.60;40.80
8945;DHT22;4507;40.232;29.132;2023-01-08T11:03:00;15.20;40.90
8945;DHT22;4507;40.232;29.132;2023-01-08T11:05:32;14.80;41.60
8945;DHT22;4507;40.232;29.132;2023-01-08T11:08:04;14.40;42.30
8945;DHT22;4507;40.232;29.132;2023-01-08T11:10:35;14.00;43.30
8945;DHT22;4507;40.232;29.132;2023-01-08T11:13:13;13.70;44.30
8945;DHT22;4507;40.232;29.132;2023-01-08T11:15:44;13.40;45.00
8945;DHT22;4507;40.232;29.132;2023-01-08T11:18:18;13.20;45.90
8945;DHT22;4507;40.232;29.132;2023-01-08T11:20:49;13.00;47.40
8945;DHT22;4507;40.232;29.132;2023-01-08T11:23:20;12.90;47.40
8945;DHT22;4507;40.232;29.132;2023-01-08T11:26:00;12.70;48.00
8945;DHT22;4507;40.232;29.132;2023-01-08T11:28:42;12.60;48.50
8945;DHT22;4507;40.232;29.132;2023-01-08T11:31:19;12.50;49.20
8945;DHT22;4507;40.232;29.132;2023-01-08T11:33:51;12.50;49.40
8945;DHT22;4507;40.232;29.132;2023-01-08T11:36:28;12.50;49.50
8945;DHT22;4507;40.232;29.132;2023-01-08T11:38:59;12.40;49.30
8945;DHT22;4507;40.232;29.132;2023-01-08T11:41:39;12.40;49.20
8945;DHT22;4507;40.232;29.132;2023-01-08T11:44:26;12.30;49.70
8945;DHT22;4507;40.232;29.132;2023-01-08T11:47:06;12.30;49.90
8945;DHT22;4507;40.232;29.132;2023-01-08T11:49:56;12.20;50.30
8945;DHT22;4507;40.232;29.132;2023-01-08T11:52:40;12.30;50.90
8945;DHT22;4507;40.232;29.132;2023-01-08T11:55:30;12.30;50.80
8945;DHT22;4507;40.232;29.132;2023-01-08T11:58:12;12.30;50.90
8945;DHT22;4507;40.232;29.132;2023-01-08T12:01:01;12.40;51.20
8945;DHT22;4507;40.232;29.132;2023-01-08T12:03:38;12.50;51.20
8945;DHT22;4507;40.232;29.132;2023-01-08T12:06:19;12.50;51.30
8945;DHT22;4507;40.232;29.132;2023-01-08T12:08:57;12.60;51.30
8945;DHT22;4507;40.232;29.132;2023-01-08T12:11:31;12.60;51.50
8945;DHT22;4507;40.232;29.132;2023-01-08T12:14:23;12.60;51.50
8945;DHT22;4507;40.232;29.132;2023-01-08T12:17:06;12.60;51.60
8945;DHT22;4507;40.232;29.132;2023-01-08T12:19:53;12.60;51.80
8945;DHT22;4507;40.232;29.132;2023-01-08T12:22:37;12.60;51.90
8945;DHT22;4507;40.232;29.132;2023-01-08T12:28:16;12.60;52.30
8945;DHT22;4507;40.232;29.132;2023-01-08T12:31:08;12.60;52.50
8945;DHT22;4507;40.232;29.132;2023-01-08T12:33:46;12.50;52.70
8945;DHT22;4507;40.232;29.132;2023-01-08T12:36:20;12.50;52.90
8945;DHT22;4507;40.232;29.132;2023-01-08T12:38:53;12.50;52.90
8945;DHT22;4507;40.232;29.132;2023-01-08T12:41:24;12.50;53.10
8945;DHT22;4507;40.232;29.132;2023-01-08T12:43:58;12.40;53.10
8945;DHT22;4507;40.232;29.132;2023-01-08T12:46:31;12.40;53.30
8945;DHT22;4507;40.232;29.132;2023-01-08T12:49:04;12.40;53.40
8945;DHT22;4507;40.232;29.132;2023-01-08T12:51:37;12.40;53.40
8945;DHT22;4507;40.232;29.132;2023-01-08T12:54:15;12.30;53.60
8945;DHT22;4507;40.232;29.132;2023-01-08T12:56:53;12.30;53.70
8945;DHT22;4507;40.232;29.132;2023-01-08T12:59:31;12.40;53.80
8945;DHT22;4507;40.232;29.132;2023-01-08T13:02:14;12.30;53.80
8945;DHT22;4507;40.232;29.132;2023-01-08T13:04:48;12.40;54.00
8945;DHT22;4507;40.232;29.132;2023-01-08T13:07:19;12.40;54.10
8945;DHT22;4507;40.232;29.132;2023-01-08T13:09:55;12.30;54.10
8945;DHT22;4507;40.232;29.132;2023-01-08T13:12:34;12.30;54.60
8945;DHT22;4507;40.232;29.132;2023-01-08T13:15:05;12.40;54.80
8945;DHT22;4507;40.232;29.132;2023-01-08T13:17:36;12.30;54.60
8945;DHT22;4507;40.232;29.132;2023-01-08T13:20:08;12.30;54.70
8945;DHT22;4507;40.232;29.132;2023-01-08T13:22:37;12.30;54.60
8945;DHT22;4507;40.232;29.132;2023-01-08T13:25:27;12.30;54.60
8945;DHT22;4507;40.232;29.132;2023-01-08T13:27:58;12.30;54.80
8945;DHT22;4507;40.232;29.132;2023-01-08T13:30:34;12.30;55.00
8945;DHT22;4507;40.232;29.132;2023-01-08T13:33:35;12.30;55.10
8945;DHT22;4507;40.232;29.132;2023-01-08T13:36:22;12.30;55.20
8945;DHT22;4507;40.232;29.132;2023-01-08T13:39:00;12.20;55.20
8945;DHT22;4507;40.232;29.132;2023-01-08T13:41:31;12.10;55.10
8945;DHT22;4507;40.232;29.132;2023-01-08T13:44:02;12.20;55.30
8945;DHT22;4507;40.232;29.132;2023-01-08T13:46:35;12.20;55.50
8945;DHT22;4507;40.232;29.132;2023-01-08T13:49:08;12.20;55.50
8945;DHT22;4507;40.232;29.132;2023-01-08T13:51:41;12.20;55.60
8945;DHT22;4507;40.232;29.132;2023-01-08T13:54:21;12.20;55.60
8945;DHT22;4507;40.232;29.132;2023-01-08T13:56:53;12.10;55.60
8945;DHT22;4507;40.232;29.132;2023-01-08T13:59:38;12.10;55.80
8945;DHT22;4507;40.232;29.132;2023-01-08T14:02:27;12.10;55.70
8945;DHT22;4507;40.232;29.132;2023-01-08T14:04:59;12.10;55.60
8945;DHT22;4507;40.232;29.132;2023-01-08T14:07:37;12.10;55.70
8945;DHT22;4507;40.232;29.132;2023-01-08T14:10:11;12.20;55.60
8945;DHT22;4507;40.232;29.132;2023-01-08T14:12:41;12.20;55.40
8945;DHT22;4507;40.232;29.132;2023-01-08T14:15:19;12.20;55.30
8945;DHT22;4507;40.232;29.132;2023-01-08T14:17:49;12.20;55.20
8945;DHT22;4507;40.232;29.132;2023-01-08T14:20:25;12.20;55.20
8945;DHT22;4507;40.232;29.132;2023-01-08T14:22:58;12.10;55.00
8945;DHT22;4507;40.232;29.132;2023-01-08T14:25:28;12.10;55.40
8945;DHT22;4507;40.232;29.132;2023-01-08T14:27:59;12.10;55.40
8945;DHT22;4507;40.232;29.132;2023-01-08T14:30:29;12.00;55.30
8945;DHT22;4507;40.232;29.132;2023-01-08T14:32:59;12.00;55.30
8945;DHT22;4507;40.232;29.132;2023-01-08T14:35:31;11.90;55.00
8945;DHT22;4507;40.232;29.132;2023-01-08T14:38:03;11.90;54.90
8945;DHT22;4507;40.232;29.132;2023-01-08T14:40:37;11.80;54.80
8945;DHT22;4507;40.232;29.132;2023-01-08T14:43:09;11.70;54.80
8945;DHT22;4507;40.232;29.132;2023-01-08T14:45:44;11.50;54.80
8945;DHT22;4507;40.232;29.132;2023-01-08T14:48:18;11.40;54.90
8945;DHT22;4507;40.232;29.132;2023-01-08T14:51:00;11.30;55.10
8945;DHT22;4507;40.232;29.132;2023-01-08T14:53:34;11.10;55.30
8945;DHT22;4507;40.232;29.132;2023-01-08T14:56:05;11.00;55.50
8945;DHT22;4507;40.232;29.132;2023-01-08T14:58:37;10.80;55.50
8945;DHT22;4507;40.232;29.132;2023-01-08T15:01:15;10.70;55.80
8945;DHT22;4507;40.232;29.132;2023-01-08T15:04:06;10.50;55.90
8945;DHT22;4507;40.232;29.132;2023-01-08T15:06:36;10.40;56.20
8945;DHT22;4507;40.232;29.132;2023-01-08T15:09:20;10.30;56.40
8945;DHT22;4507;40.232;29.132;2023-01-08T15:11:52;10.20;56.60
8945;DHT22;4507;40.232;29.132;2023-01-08T15:14:23;10.10;56.80
8945;DHT22;4507;40.232;29.132;2023-01-08T15:16:53;10.00;57.00
8945;DHT22;4507;40.232;29.132;2023-01-08T15:19:25;9.90;58.10
8945;DHT22;4507;40.232;29.132;2023-01-08T15:21:56;9.80;58.40
8945;DHT22;4507;40.232;29.132;2023-01-08T15:24:30;9.70;58.70
8945;DHT22;4507;40.232;29.132;2023-01-08T15:27:00;9.60;59.10
8945;DHT22;4507;40.232;29.132;2023-01-08T15:29:38;9.50;59.30
8945;DHT22;4507;40.232;29.132;2023-01-08T15:32:09;9.40;59.50
8945;DHT22;4507;40.232;29.132;2023-01-08T15:34:39;9.40;59.80
8945;DHT22;4507;40.232;29.132;2023-01-08T15:37:08;9.30;60.00
8945;DHT22;4507;40.232;29.132;2023-01-08T15:39:39;9.20;60.10
8945;DHT22;4507;40.232;29.132;2023-01-08T15:42:17;9.10;60.30
8945;DHT22;4507;40.232;29.132;2023-01-08T15:45:05;9.00;60.60
8945;DHT22;4507;40.232;29.132;2023-01-08T15:47:53;8.90;60.80
8945;DHT22;4507;40.232;29.132;2023-01-08T15:50:22;8.80;61.10
8945;DHT22;4507;40.232;29.132;2023-01-08T15:52:52;8.70;61.40
8945;DHT22;4507;40.232;29.132;2023-01-08T15:55:24;8.50;61.60
8945;DHT22;4507;40.232;29.132;2023-01-08T15:57:53;8.40;62.00
8945;DHT22;4507;40.232;29.132;2023-01-08T16:00:23;8.40;62.40
8945;DHT22;4507;40.232;29.132;2023-01-08T16:02:53;8.30;62.70
8945;DHT22;4507;40.232;29.132;2023-01-08T16:05:23;8.20;63.00
8945;DHT22;4507;40.232;29.132;2023-01-08T16:07:54;8.10;63.30
8945;DHT22;4507;40.232;29.132;2023-01-08T16:10:24;8.00;63.70
8945;DHT22;4507;40.232;29.132;2023-01-08T16:12:55;8.00;64.10
8945;DHT22;4507;40.232;29.132;2023-01-08T16:15:24;7.90;64.30
8945;DHT22;4507;40.232;29.132;2023-01-08T16:17:55;7.90;64.70
8945;DHT22;4507;40.232;29.132;2023-01-08T16:20:24;7.80;64.90
8945;DHT22;4507;40.232;29.132;2023-01-08T16:22:54;7.80;65.20
8945;DHT22;4507;40.232;29.132;2023-01-08T16:25:25;7.80;65.60
8945;DHT22;4507;40.232;29.132;2023-01-08T16:27:54;7.70;65.80
8945;DHT22;4507;40.232;29.132;2023-01-08T16:30:24;7.70;66.00